Terminal Aerodrome Forecast
Issued by NWS Greer, SC

Home | Current Version | Previous Version | Text Only | Print | Product List | Glossary On
Versions: 1 2 3 4 5 6 7 8 9 10 11 12 13 14 15 16 17 18 19 20 21 22 23 24 25 26 27 28 29 30 31 32 33 34 35 36 37 38 39 40 41 42 43 44 45 46 47
000
FTUS42 KGSP 281138
TAFAVL
TAF
KAVL 281138Z 2812/2912 34003KT P6SM OVC004
     FM281400 33005KT P6SM BKN025
     FM281800 16004KT P6SM BKN050
     FM282100 17006KT P6SM BKN060 PROB30 2821/2903 4SM TSRA BKN040CB
     FM290300 00000KT P6SM BKN080
     FM290900 00000KT 5SM BR BKN007=

USA.gov is the U.S. government's official web portal to all federal, state and local government web resources and services.